Current Weather Conditions: station 62134

sailwx.info

Wind from 170 at 18 knots

Wave height 0.6 meters (1 feet), 5 second period

Air temperature 15.7° C
Dewpoint 15.2° C

Last reported at 2019-Aug-24 08:00 UTC.
Time now 2019-Aug-24 09:48 UTC

Location: N 58°00' E 001°24'.
View on Google Maps.

See reports from other nearby stations

  
Tides and Currents Weather Stations Pressure Air Temp Water Temp Dewpoint Dewpoint Depression Visibility Wind Speed Wind Dir Waves Ship Positions
date/time (UTC)wind fromknots sea level pressurealtimeterstation pressurevisibilityair tempwater tempwave heightnotes
2019-Aug-24 08:00 170 18 15.7 0.6
2019-Aug-24 07:00 170 15 15.6 0.6
2019-Aug-24 06:00 170 15 15.6 0.8
2019-Aug-24 05:00 170 14 15.5 0.9
2019-Aug-24 04:00 180 14 15.6 0.9
2019-Aug-24 03:00 190 15 15.7 1.0
2019-Aug-24 02:00 180 17 15.8 1.0
2019-Aug-24 01:00 190 17 15.8 1.1
2019-Aug-24 00:00 190 15 15.7 1.1
2019-Aug-23 23:00 200 15 15.7 1.1
2019-Aug-23 22:00 180 15 15.9 1.2
2019-Aug-23 21:00 190 14 16.0 1.2
2019-Aug-23 20:00 190 15 15.7 1.3
2019-Aug-23 19:00 190 14 15.7 1.4
2019-Aug-23 18:00 210 15 15.7 1.4
2019-Aug-23 17:00 210 14 15.4 1.5
2019-Aug-23 16:00 220 13 15.6 1.6
2019-Aug-23 15:00 220 17 15.6 1.7
2019-Aug-23 14:00 210 17 15.5 1.7
2019-Aug-23 13:00 220 15 15.4
2019-Aug-23 12:00 220 15 15.3 1.6
2019-Aug-23 11:00 230 18 15.4 1.7
2019-Aug-23 10:00 230 15 15.3 1.7
2019-Aug-23 09:00 220 14 15.2 1.8
2019-Aug-23 08:00 240 13 15.2 1.8
2019-Aug-23 07:00 230 14 15.1 1.9
2019-Aug-23 06:00 230 15 15.1 1.7
2019-Aug-23 05:00 240 13 15.2 1.6
2019-Aug-23 04:00 240 15 15.3 1.7
2019-Aug-23 03:00 240 15 15.0 1.9
2019-Aug-23 02:00 240 13 14.7 2.0
2019-Aug-23 01:00 230 19 14.6
2019-Aug-23 00:00 230 20 15.0 2.2
2019-Aug-22 23:00 220 24 15.4 2.3
2019-Aug-22 22:00 210 25 15.6 2.1
2019-Aug-22 21:00 200 25 15.9 2.0
2019-Aug-22 20:00 190 24 15.8 2.0
2019-Aug-22 19:00 200 25 15.7 1.9
2019-Aug-22 18:00 180 24 15.5 1.7
2019-Aug-22 17:00 180 20 15.3 1.6
2019-Aug-22 16:00 180 20 15.1 1.7
2019-Aug-22 15:00 190 20 15.1
2019-Aug-22 14:00 190 20 15.0 1.7
2019-Aug-22 13:00 200 19 14.8 1.8
2019-Aug-22 12:00 200 19 14.8 1.9
2019-Aug-22 11:00 200 18 14.5 2.0
2019-Aug-22 10:00 210 19 14.2 2.0
2019-Aug-22 09:00 210 18 14.0 1.9